sensor_id;sensor_type;location;lat;lon;timestamp;pressure;altitude;pressure_sealevel;temperature;humidity
76050;BME280;64967;50.234;19.224;2023-09-30T00:00:45;75118.47;;;-143.90;96.62
76050;BME280;64967;50.234;19.224;2023-09-30T00:03:12;75128.81;;;-143.90;96.34
76050;BME280;64967;50.234;19.224;2023-09-30T00:05:39;75128.81;;;-143.90;96.65
76050;BME280;64967;50.234;19.224;2023-09-30T00:08:05;75132.94;;;-143.90;96.70
76050;BME280;64967;50.234;19.224;2023-09-30T00:10:33;75130.88;;;-143.90;96.49
76050;BME280;64967;50.234;19.224;2023-09-30T00:13:00;75135.00;;;-143.90;96.47
76050;BME280;64967;50.234;19.224;2023-09-30T00:15:27;75128.81;;;-143.90;96.60
76050;BME280;64967;50.234;19.224;2023-09-30T00:17:54;75128.81;;;-143.90;96.69
76050;BME280;64967;50.234;19.224;2023-09-30T00:20:21;75126.75;;;-143.90;97.13
76050;BME280;64967;50.234;19.224;2023-09-30T00:22:49;75130.88;;;-143.90;97.38
76050;BME280;64967;50.234;19.224;2023-09-30T00:25:15;75124.66;;;-143.90;97.05
76050;BME280;64967;50.234;19.224;2023-09-30T00:27:42;75124.66;;;-143.90;96.76
76050;BME280;64967;50.234;19.224;2023-09-30T00:30:09;75118.47;;;-143.90;96.88
76050;BME280;64967;50.234;19.224;2023-09-30T00:32:35;75122.59;;;-143.90;96.95
76050;BME280;64967;50.234;19.224;2023-09-30T00:35:03;75118.47;;;-143.90;96.49
76050;BME280;64967;50.234;19.224;2023-09-30T00:37:29;75114.34;;;-143.90;96.99
76050;BME280;64967;50.234;19.224;2023-09-30T00:39:56;75122.59;;;-143.90;96.69
76050;BME280;64967;50.234;19.224;2023-09-30T00:42:23;75104.00;;;-143.90;96.92
76050;BME280;64967;50.234;19.224;2023-09-30T00:44:49;75108.13;;;-143.90;96.52
76050;BME280;64967;50.234;19.224;2023-09-30T00:47:16;75106.06;;;-143.90;97.16
76050;BME280;64967;50.234;19.224;2023-09-30T00:49:43;75101.94;;;-143.90;97.20
76050;BME280;64967;50.234;19.224;2023-09-30T00:52:10;75106.06;;;-143.90;96.80
76050;BME280;64967;50.234;19.224;2023-09-30T00:54:37;75099.88;;;-143.90;97.01
76050;BME280;64967;50.234;19.224;2023-09-30T00:57:05;75114.34;;;-143.90;96.41
76050;BME280;64967;50.234;19.224;2023-09-30T00:59:32;75106.06;;;-143.90;97.04
76050;BME280;64967;50.234;19.224;2023-09-30T01:01:59;75116.41;;;-143.90;97.29
76050;BME280;64967;50.234;19.224;2023-09-30T01:04:27;75106.06;;;-143.90;97.74
76050;BME280;64967;50.234;19.224;2023-09-30T01:06:54;75104.00;;;-143.90;97.46
76050;BME280;64967;50.234;19.224;2023-09-30T01:09:24;75101.94;;;-143.90;96.99
76050;BME280;64967;50.234;19.224;2023-09-30T01:11:51;75099.88;;;-143.90;96.75
76050;BME280;64967;50.234;19.224;2023-09-30T01:14:29;75095.72;;;-143.90;96.74
76050;BME280;64967;50.234;19.224;2023-09-30T01:16:56;75093.66;;;-143.90;96.57
76050;BME280;64967;50.234;19.224;2023-09-30T01:19:27;75093.66;;;-143.90;97.11
76050;BME280;64967;50.234;19.224;2023-09-30T01:21:57;75093.66;;;-143.90;96.99
76050;BME280;64967;50.234;19.224;2023-09-30T01:24:28;75093.66;;;-143.90;96.73
76050;BME280;64967;50.234;19.224;2023-09-30T01:26:56;75093.66;;;-143.90;96.52
76050;BME280;64967;50.234;19.224;2023-09-30T01:29:23;75091.59;;;-143.90;96.61
76050;BME280;64967;50.234;19.224;2023-09-30T01:31:52;75089.53;;;-143.90;97.11
76050;BME280;64967;50.234;19.224;2023-09-30T01:34:20;75091.59;;;-143.90;97.38
76050;BME280;64967;50.234;19.224;2023-09-30T01:36:47;75089.53;;;-143.90;96.88
76050;BME280;64967;50.234;19.224;2023-09-30T01:39:14;75085.38;;;-143.90;97.09
76050;BME280;64967;50.234;19.224;2023-09-30T01:41:41;75093.66;;;-143.90;96.83
76050;BME280;64967;50.234;19.224;2023-09-30T01:44:08;75085.38;;;-143.90;96.94
76050;BME280;64967;50.234;19.224;2023-09-30T01:46:36;75083.31;;;-143.90;96.78
76050;BME280;64967;50.234;19.224;2023-09-30T01:49:03;75081.25;;;-143.90;96.36
76050;BME280;64967;50.234;19.224;2023-09-30T01:51:32;75081.25;;;-143.90;95.90
76050;BME280;64967;50.234;19.224;2023-09-30T01:53:59;75077.13;;;-143.90;96.09
76050;BME280;64967;50.234;19.224;2023-09-30T01:56:26;75079.19;;;-143.90;96.20
76050;BME280;64967;50.234;19.224;2023-09-30T01:58:53;75070.91;;;-143.90;95.85
76050;BME280;64967;50.234;19.224;2023-09-30T02:01:21;75064.72;;;-143.90;95.63
76050;BME280;64967;50.234;19.224;2023-09-30T02:03:48;75068.84;;;-143.90;96.45
76050;BME280;64967;50.234;19.224;2023-09-30T02:06:14;75072.97;;;-143.90;95.85
76050;BME280;64967;50.234;19.224;2023-09-30T02:08:41;75064.72;;;-143.90;96.24
76050;BME280;64967;50.234;19.224;2023-09-30T02:11:08;75064.72;;;-143.90;97.01
76050;BME280;64967;50.234;19.224;2023-09-30T02:13:35;75070.91;;;-143.90;96.85
76050;BME280;64967;50.234;19.224;2023-09-30T02:16:01;75066.78;;;-143.90;97.01
76050;BME280;64967;50.234;19.224;2023-09-30T02:18:28;75064.72;;;-143.90;96.50
76050;BME280;64967;50.234;19.224;2023-09-30T02:20:59;75064.72;;;-143.90;96.45
76050;BME280;64967;50.234;19.224;2023-09-30T02:23:26;75064.72;;;-143.90;96.62
76050;BME280;64967;50.234;19.224;2023-09-30T02:25:52;75064.72;;;-143.90;97.26
76050;BME280;64967;50.234;19.224;2023-09-30T02:28:19;75068.84;;;-143.90;96.80
76050;BME280;64967;50.234;19.224;2023-09-30T02:30:46;75070.91;;;-143.90;96.36
76050;BME280;64967;50.234;19.224;2023-09-30T02:33:12;75064.72;;;-143.90;96.74
76050;BME280;64967;50.234;19.224;2023-09-30T02:35:43;75068.84;;;-143.90;97.85
76050;BME280;64967;50.234;19.224;2023-09-30T02:38:10;75066.78;;;-143.90;97.42
76050;BME280;64967;50.234;19.224;2023-09-30T02:40:37;75058.50;;;-143.90;98.14
76050;BME280;64967;50.234;19.224;2023-09-30T02:43:04;75056.44;;;-143.90;98.05
76050;BME280;64967;50.234;19.224;2023-09-30T02:45:31;75060.59;;;-143.90;97.41
76050;BME280;64967;50.234;19.224;2023-09-30T02:47:58;75052.31;;;-143.90;97.64
76050;BME280;64967;50.234;19.224;2023-09-30T02:50:25;75056.44;;;-143.90;98.34
76050;BME280;64967;50.234;19.224;2023-09-30T02:52:51;75064.72;;;-143.90;98.77
76050;BME280;64967;50.234;19.224;2023-09-30T02:55:18;75052.31;;;-143.90;98.36
76050;BME280;64967;50.234;19.224;2023-09-30T02:57:45;75052.31;;;-143.90;98.10
76050;BME280;64967;50.234;19.224;2023-09-30T03:00:13;75056.44;;;-143.90;97.51
76050;BME280;64967;50.234;19.224;2023-09-30T03:02:52;75046.09;;;-143.90;97.46
76050;BME280;64967;50.234;19.224;2023-09-30T03:05:20;75048.19;;;-143.90;97.27
76050;BME280;64967;50.234;19.224;2023-09-30T03:07:47;75044.03;;;-143.90;97.40
76050;BME280;64967;50.234;19.224;2023-09-30T03:10:14;75048.19;;;-143.90;98.35
76050;BME280;64967;50.234;19.224;2023-09-30T03:12:47;75033.72;;;-143.90;98.01
76050;BME280;64967;50.234;19.224;2023-09-30T03:15:14;75035.78;;;-143.90;97.73
76050;BME280;64967;50.234;19.224;2023-09-30T03:17:42;75021.31;;;-143.90;96.92
76050;BME280;64967;50.234;19.224;2023-09-30T03:20:10;75015.09;;;-143.90;97.08
76050;BME280;64967;50.234;19.224;2023-09-30T03:22:42;75013.03;;;-143.90;97.22
76050;BME280;64967;50.234;19.224;2023-09-30T03:25:12;75021.31;;;-143.90;98.11
76050;BME280;64967;50.234;19.224;2023-09-30T03:27:41;75019.22;;;-143.90;98.04
76050;BME280;64967;50.234;19.224;2023-09-30T03:30:08;75010.97;;;-143.90;97.75
76050;BME280;64967;50.234;19.224;2023-09-30T03:32:36;75006.84;;;-143.90;97.18
76050;BME280;64967;50.234;19.224;2023-09-30T03:35:06;75008.91;;;-143.90;97.04
76050;BME280;64967;50.234;19.224;2023-09-30T03:37:33;75006.84;;;-143.90;97.46
76050;BME280;64967;50.234;19.224;2023-09-30T03:40:01;75008.91;;;-143.90;97.64
76050;BME280;64967;50.234;19.224;2023-09-30T03:42:39;75010.97;;;-143.90;99.30
76050;BME280;64967;50.234;19.224;2023-09-30T03:45:06;75015.09;;;-143.90;98.85
76050;BME280;64967;50.234;19.224;2023-09-30T03:47:40;75010.97;;;-143.90;98.37
76050;BME280;64967;50.234;19.224;2023-09-30T03:50:07;75010.97;;;-143.90;97.75
76050;BME280;64967;50.234;19.224;2023-09-30T03:52:42;75013.03;;;-143.90;98.69
76050;BME280;64967;50.234;19.224;2023-09-30T03:55:14;75015.09;;;-143.90;98.44
76050;BME280;64967;50.234;19.224;2023-09-30T03:57:43;75017.16;;;-143.90;98.69
76050;BME280;64967;50.234;19.224;2023-09-30T04:00:10;75006.84;;;-143.90;98.57
76050;BME280;64967;50.234;19.224;2023-09-30T04:02:37;75010.97;;;-143.90;98.46
76050;BME280;64967;50.234;19.224;2023-09-30T04:05:04;75006.84;;;-143.90;98.67
76050;BME280;64967;50.234;19.224;2023-09-30T04:07:31;75010.97;;;-143.90;98.49
76050;BME280;64967;50.234;19.224;2023-09-30T04:09:59;75002.69;;;-143.90;98.32
76050;BME280;64967;50.234;19.224;2023-09-30T04:12:27;75004.75;;;-143.90;98.62
76050;BME280;64967;50.234;19.224;2023-09-30T04:14:55;75006.84;;;-143.90;98.90
76050;BME280;64967;50.234;19.224;2023-09-30T04:17:21;75006.84;;;-143.90;99.45
76050;BME280;64967;50.234;19.224;2023-09-30T04:19:49;75010.97;;;-143.90;98.76
76050;BME280;64967;50.234;19.224;2023-09-30T04:22:19;75019.22;;;-143.90;99.46
76050;BME280;64967;50.234;19.224;2023-09-30T04:24:47;75006.84;;;-143.90;99.86
76050;BME280;64967;50.234;19.224;2023-09-30T04:27:19;75008.91;;;-143.90;100.00
76050;BME280;64967;50.234;19.224;2023-09-30T04:29:46;75019.22;;;-143.90;100.00
76050;BME280;64967;50.234;19.224;2023-09-30T04:32:13;75029.56;;;-143.90;100.00
76050;BME280;64967;50.234;19.224;2023-09-30T04:34:40;75029.56;;;-143.90;100.00
76050;BME280;64967;50.234;19.224;2023-09-30T04:37:10;75037.84;;;-143.90;100.00
76050;BME280;64967;50.234;19.224;2023-09-30T04:39:38;75035.78;;;-143.90;100.00
76050;BME280;64967;50.234;19.224;2023-09-30T04:42:05;75031.63;;;-143.90;100.00
76050;BME280;64967;50.234;19.224;2023-09-30T04:44:32;75029.56;;;-143.90;100.00
76050;BME280;64967;50.234;19.224;2023-09-30T04:46:58;75031.63;;;-143.90;100.00
76050;BME280;64967;50.234;19.224;2023-09-30T04:49:26;75031.63;;;-143.90;100.00
76050;BME280;64967;50.234;19.224;2023-09-30T04:51:53;75023.38;;;-143.90;100.00
76050;BME280;64967;50.234;19.224;2023-09-30T04:54:20;75033.72;;;-143.90;100.00
76050;BME280;64967;50.234;19.224;2023-09-30T04:56:48;75023.38;;;-143.90;100.00
76050;BME280;64967;50.234;19.224;2023-09-30T04:59:14;75031.63;;;-143.90;100.00
76050;BME280;64967;50.234;19.224;2023-09-30T05:01:41;75025.44;;;-143.90;100.00
76050;BME280;64967;50.234;19.224;2023-09-30T05:04:08;75021.31;;;-143.90;100.00
76050;BME280;64967;50.234;19.224;2023-09-30T05:06:35;75019.22;;;-143.90;100.00
76050;BME280;64967;50.234;19.224;2023-09-30T05:09:03;75023.38;;;-143.90;100.00
76050;BME280;64967;50.234;19.224;2023-09-30T05:11:29;75023.38;;;-143.90;100.00
76050;BME280;64967;50.234;19.224;2023-09-30T05:13:57;75023.38;;;-143.90;100.00
76050;BME280;64967;50.234;19.224;2023-09-30T05:16:24;75021.31;;;-143.90;100.00
76050;BME280;64967;50.234;19.224;2023-09-30T05:18:53;75033.72;;;-143.90;100.00
76050;BME280;64967;50.234;19.224;2023-09-30T05:21:21;75023.38;;;-143.90;100.00
76050;BME280;64967;50.234;19.224;2023-09-30T05:23:48;75029.56;;;-143.90;100.00
76050;BME280;64967;50.234;19.224;2023-09-30T05:26:15;75031.63;;;-143.90;100.00
76050;BME280;64967;50.234;19.224;2023-09-30T05:28:43;75039.91;;;-143.90;100.00
76050;BME280;64967;50.234;19.224;2023-09-30T05:31:09;75039.91;;;-143.90;100.00
76050;BME280;64967;50.234;19.224;2023-09-30T05:33:37;75044.03;;;-143.90;100.00
76050;BME280;64967;50.234;19.224;2023-09-30T05:36:04;75044.03;;;-143.90;100.00
76050;BME280;64967;50.234;19.224;2023-09-30T05:38:31;75046.09;;;-143.90;100.00
76050;BME280;64967;50.234;19.224;2023-09-30T05:40:57;75046.09;;;-143.90;100.00
76050;BME280;64967;50.234;19.224;2023-09-30T05:43:28;75046.09;;;-143.90;100.00
76050;BME280;64967;50.234;19.224;2023-09-30T05:45:55;75052.31;;;-143.90;100.00
76050;BME280;64967;50.234;19.224;2023-09-30T05:48:27;75041.97;;;-143.90;100.00
76050;BME280;64967;50.234;19.224;2023-09-30T05:50:54;75033.72;;;-143.90;100.00
76050;BME280;64967;50.234;19.224;2023-09-30T05:53:20;75035.78;;;-143.90;100.00
76050;BME280;64967;50.234;19.224;2023-09-30T05:55:47;75044.03;;;-143.90;100.00
76050;BME280;64967;50.234;19.224;2023-09-30T05:58:14;75035.78;;;-143.90;100.00
76050;BME280;64967;50.234;19.224;2023-09-30T06:00:45;75031.63;;;-143.90;100.00
76050;BME280;64967;50.234;19.224;2023-09-30T06:03:12;75037.84;;;-143.90;100.00
76050;BME280;64967;50.234;19.224;2023-09-30T06:05:40;75033.72;;;-143.90;100.00
76050;BME280;64967;50.234;19.224;2023-09-30T06:08:09;75031.63;;;-143.90;100.00
76050;BME280;64967;50.234;19.224;2023-09-30T06:10:41;75031.63;;;-143.90;100.00
76050;BME280;64967;50.234;19.224;2023-09-30T06:13:10;75037.84;;;-143.90;100.00
76050;BME280;64967;50.234;19.224;2023-09-30T06:15:38;75031.63;;;-143.90;100.00
76050;BME280;64967;50.234;19.224;2023-09-30T06:18:06;75035.78;;;-143.90;100.00
76050;BME280;64967;50.234;19.224;2023-09-30T06:20:33;75031.63;;;-143.90;100.00
76050;BME280;64967;50.234;19.224;2023-09-30T06:23:00;75031.63;;;-143.90;100.00
76050;BME280;64967;50.234;19.224;2023-09-30T06:25:29;75031.63;;;-143.90;100.00
76050;BME280;64967;50.234;19.224;2023-09-30T06:27:59;75033.72;;;-143.90;100.00
76050;BME280;64967;50.234;19.224;2023-09-30T06:30:26;75025.44;;;-143.90;100.00
76050;BME280;64967;50.234;19.224;2023-09-30T06:32:57;75027.50;;;-143.90;100.00
76050;BME280;64967;50.234;19.224;2023-09-30T06:35:27;75023.38;;;-143.90;100.00
76050;BME280;64967;50.234;19.224;2023-09-30T06:37:53;75023.38;;;-143.90;100.00
76050;BME280;64967;50.234;19.224;2023-09-30T06:40:20;75015.09;;;-143.90;100.00
76050;BME280;64967;50.234;19.224;2023-09-30T06:42:47;75006.84;;;-143.90;100.00
76050;BME280;64967;50.234;19.224;2023-09-30T06:45:14;74998.56;;;-143.90;100.00
76050;BME280;64967;50.234;19.224;2023-09-30T06:47:42;74994.44;;;-143.90;100.00
76050;BME280;64967;50.234;19.224;2023-09-30T06:50:10;74990.28;;;-143.90;100.00
76050;BME280;64967;50.234;19.224;2023-09-30T06:52:40;74988.22;;;-143.90;100.00
76050;BME280;64967;50.234;19.224;2023-09-30T06:55:08;74977.88;;;-143.90;100.00
76050;BME280;64967;50.234;19.224;2023-09-30T06:57:36;74973.75;;;-143.90;100.00
76050;BME280;64967;50.234;19.224;2023-09-30T07:00:11;74969.63;;;-143.90;100.00
76050;BME280;64967;50.234;19.224;2023-09-30T07:02:38;74961.34;;;-143.90;100.00
76050;BME280;64967;50.234;19.224;2023-09-30T07:05:12;74982.03;;;-143.90;100.00
76050;BME280;64967;50.234;19.224;2023-09-30T07:07:40;74965.50;;;-143.90;100.00
76050;BME280;64967;50.234;19.224;2023-09-30T07:10:07;74953.09;;;-143.90;100.00
76050;BME280;64967;50.234;19.224;2023-09-30T07:12:35;74953.09;;;-143.90;100.00
76050;BME280;64967;50.234;19.224;2023-09-30T07:15:06;74944.81;;;-143.90;100.00
76050;BME280;64967;50.234;19.224;2023-09-30T07:17:34;74934.47;;;-143.90;100.00
76050;BME280;64967;50.234;19.224;2023-09-30T07:20:01;74932.41;;;-143.90;100.00
76050;BME280;64967;50.234;19.224;2023-09-30T07:22:29;74920.00;;;-143.90;100.00
76050;BME280;64967;50.234;19.224;2023-09-30T07:24:59;74907.59;;;-143.90;100.00
76050;BME280;64967;50.234;19.224;2023-09-30T07:27:26;74901.41;;;-143.90;100.00
76050;BME280;64967;50.234;19.224;2023-09-30T07:29:54;74905.53;;;-143.90;100.00
76050;BME280;64967;50.234;19.224;2023-09-30T07:32:21;74920.00;;;-143.90;100.00
76050;BME280;64967;50.234;19.224;2023-09-30T07:34:51;74897.25;;;-143.90;100.00
76050;BME280;64967;50.234;19.224;2023-09-30T07:37:18;74901.41;;;-143.90;100.00
76050;BME280;64967;50.234;19.224;2023-09-30T07:39:47;74907.59;;;-143.90;100.00
76050;BME280;64967;50.234;19.224;2023-09-30T07:42:13;74901.41;;;-143.90;100.00
76050;BME280;64967;50.234;19.224;2023-09-30T07:44:41;74899.34;;;-143.90;100.00
76050;BME280;64967;50.234;19.224;2023-09-30T07:47:08;74897.25;;;-143.90;100.00
76050;BME280;64967;50.234;19.224;2023-09-30T07:49:37;74917.94;;;-143.90;100.00
76050;BME280;64967;50.234;19.224;2023-09-30T07:52:04;74903.47;;;-143.90;100.00
76050;BME280;64967;50.234;19.224;2023-09-30T07:54:31;74895.19;;;-143.90;100.00
76050;BME280;64967;50.234;19.224;2023-09-30T07:56:59;74891.06;;;-143.90;100.00
76050;BME280;64967;50.234;19.224;2023-09-30T07:59:26;74891.06;;;-143.90;100.00
76050;BME280;64967;50.234;19.224;2023-09-30T08:01:54;74901.41;;;-143.90;100.00
76050;BME280;64967;50.234;19.224;2023-09-30T08:04:21;74889.00;;;-143.90;100.00
76050;BME280;64967;50.234;19.224;2023-09-30T08:06:49;74901.41;;;-143.90;100.00
76050;BME280;64967;50.234;19.224;2023-09-30T08:09:17;74876.59;;;-143.90;100.00
76050;BME280;64967;50.234;19.224;2023-09-30T08:11:45;74884.88;;;-143.90;100.00
76050;BME280;64967;50.234;19.224;2023-09-30T08:14:12;74882.78;;;-143.90;100.00
76050;BME280;64967;50.234;19.224;2023-09-30T08:16:38;74886.94;;;-143.90;100.00
76050;BME280;64967;50.234;19.224;2023-09-30T08:19:05;74882.78;;;-143.90;100.00
76050;BME280;64967;50.234;19.224;2023-09-30T08:21:32;74886.94;;;-143.90;100.00
76050;BME280;64967;50.234;19.224;2023-09-30T08:23:59;74895.19;;;-143.90;100.00
76050;BME280;64967;50.234;19.224;2023-09-30T08:26:26;74882.78;;;-143.90;100.00
76050;BME280;64967;50.234;19.224;2023-09-30T08:28:53;74889.00;;;-143.90;100.00
76050;BME280;64967;50.234;19.224;2023-09-30T08:31:19;74903.47;;;-143.90;100.00
76050;BME280;64967;50.234;19.224;2023-09-30T08:33:48;74884.88;;;-143.90;100.00
76050;BME280;64967;50.234;19.224;2023-09-30T08:36:15;74882.78;;;-143.90;100.00
76050;BME280;64967;50.234;19.224;2023-09-30T08:38:42;74870.38;;;-143.90;100.00
76050;BME280;64967;50.234;19.224;2023-09-30T08:41:09;74878.66;;;-143.90;100.00
76050;BME280;64967;50.234;19.224;2023-09-30T08:43:39;74864.19;;;-143.90;100.00
76050;BME280;64967;50.234;19.224;2023-09-30T08:46:07;74866.25;;;-143.90;100.00
76050;BME280;64967;50.234;19.224;2023-09-30T08:48:34;74853.84;;;-143.90;100.00
76050;BME280;64967;50.234;19.224;2023-09-30T08:51:02;74853.84;;;-143.90;100.00
76050;BME280;64967;50.234;19.224;2023-09-30T08:53:29;74855.91;;;-143.90;100.00
76050;BME280;64967;50.234;19.224;2023-09-30T08:55:57;74841.44;;;-143.90;100.00
76050;BME280;64967;50.234;19.224;2023-09-30T08:58:27;74831.13;;;-143.90;100.00
76050;BME280;64967;50.234;19.224;2023-09-30T09:00:55;74841.44;;;-143.90;100.00
76050;BME280;64967;50.234;19.224;2023-09-30T09:03:23;74831.13;;;-143.90;100.00
76050;BME280;64967;50.234;19.224;2023-09-30T09:05:54;74822.84;;;-143.90;100.00
76050;BME280;64967;50.234;19.224;2023-09-30T09:08:25;74818.72;;;-143.90;100.00
76050;BME280;64967;50.234;19.224;2023-09-30T09:10:59;74816.66;;;-143.90;100.00
76050;BME280;64967;50.234;19.224;2023-09-30T09:13:27;74814.56;;;-143.90;100.00
76050;BME280;64967;50.234;19.224;2023-09-30T09:16:09;74812.50;;;-143.90;100.00
76050;BME280;64967;50.234;19.224;2023-09-30T09:18:37;74820.78;;;-143.90;100.00
76050;BME280;64967;50.234;19.224;2023-09-30T09:23:44;74831.13;;;-143.90;100.00
76050;BME280;64967;50.234;19.224;2023-09-30T09:26:12;74820.78;;;-143.90;100.00
76050;BME280;64967;50.234;19.224;2023-09-30T09:28:43;74824.91;;;-143.90;100.00
76050;BME280;64967;50.234;19.224;2023-09-30T09:31:25;74820.78;;;-143.90;100.00
76050;BME280;64967;50.234;19.224;2023-09-30T09:33:52;74824.91;;;-143.90;100.00
76050;BME280;64967;50.234;19.224;2023-09-30T09:36:20;74845.59;;;-143.90;100.00
76050;BME280;64967;50.234;19.224;2023-09-30T09:38:50;74853.84;;;-143.90;100.00
76050;BME280;64967;50.234;19.224;2023-09-30T09:41:20;74862.13;;;-143.90;100.00
76050;BME280;64967;50.234;19.224;2023-09-30T09:43:50;74870.38;;;-143.90;100.00
76050;BME280;64967;50.234;19.224;2023-09-30T09:46:19;74874.53;;;-143.90;100.00
76050;BME280;64967;50.234;19.224;2023-09-30T09:48:47;74878.66;;;-143.90;100.00
76050;BME280;64967;50.234;19.224;2023-09-30T09:51:14;74886.94;;;-143.90;100.00
76050;BME280;64967;50.234;19.224;2023-09-30T09:53:41;74889.00;;;-143.90;100.00
76050;BME280;64967;50.234;19.224;2023-09-30T09:56:11;74907.59;;;-143.90;100.00
76050;BME280;64967;50.234;19.224;2023-09-30T09:58:39;74913.81;;;-143.90;100.00
76050;BME280;64967;50.234;19.224;2023-09-30T10:01:10;74903.47;;;-143.90;100.00
76050;BME280;64967;50.234;19.224;2023-09-30T10:03:41;74899.34;;;-143.90;100.00
76050;BME280;64967;50.234;19.224;2023-09-30T10:06:09;74907.59;;;-143.90;100.00
76050;BME280;64967;50.234;19.224;2023-09-30T10:08:44;74922.06;;;-143.90;100.00
76050;BME280;64967;50.234;19.224;2023-09-30T10:11:19;74913.81;;;-143.90;100.00
76050;BME280;64967;50.234;19.224;2023-09-30T10:13:58;74903.47;;;-143.90;100.00
76050;BME280;64967;50.234;19.224;2023-09-30T10:19:14;74882.78;;;-143.90;100.00
76050;BME280;64967;50.234;19.224;2023-09-30T10:24:42;74876.59;;;-143.90;100.00
76050;BME280;64967;50.234;19.224;2023-09-30T10:29:54;74878.66;;;-143.90;100.00
76050;BME280;64967;50.234;19.224;2023-09-30T10:32:21;74868.31;;;-143.90;100.00
76050;BME280;64967;50.234;19.224;2023-09-30T10:34:48;74870.38;;;-143.90;100.00
76050;BME280;64967;50.234;19.224;2023-09-30T10:37:22;74849.72;;;-143.90;100.00
76050;BME280;64967;50.234;19.224;2023-09-30T10:39:57;74839.38;;;-143.90;100.00
76050;BME280;64967;50.234;19.224;2023-09-30T10:51:14;74829.03;;;-143.90;100.00
76050;BME280;64967;50.234;19.224;2023-09-30T10:53:43;74837.31;;;-143.90;100.00
76050;BME280;64967;50.234;19.224;2023-09-30T10:56:10;74826.97;;;-143.90;100.00
76050;BME280;64967;50.234;19.224;2023-09-30T10:58:52;74829.03;;;-143.90;100.00
76050;BME280;64967;50.234;19.224;2023-09-30T11:01:22;74829.03;;;-143.90;100.00
76050;BME280;64967;50.234;19.224;2023-09-30T11:03:50;74816.66;;;-143.90;100.00
76050;BME280;64967;50.234;19.224;2023-09-30T11:06:24;74810.44;;;-143.90;100.00
76050;BME280;64967;50.234;19.224;2023-09-30T11:08:56;74802.16;;;-143.90;100.00
76050;BME280;64967;50.234;19.224;2023-09-30T11:11:36;74804.25;;;-143.90;100.00
76050;BME280;64967;50.234;19.224;2023-09-30T11:14:17;74800.09;;;-143.90;100.00
76050;BME280;64967;50.234;19.224;2023-09-30T11:16:44;74789.78;;;-143.90;100.00
76050;BME280;64967;50.234;19.224;2023-09-30T11:19:12;74795.97;;;-143.90;100.00
76050;BME280;64967;50.234;19.224;2023-09-30T11:21:39;74824.91;;;-143.90;100.00
76050;BME280;64967;50.234;19.224;2023-09-30T11:24:07;74820.78;;;-143.90;100.00
76050;BME280;64967;50.234;19.224;2023-09-30T11:26:34;74818.72;;;-143.90;100.00
76050;BME280;64967;50.234;19.224;2023-09-30T11:29:13;74824.91;;;-143.90;100.00
76050;BME280;64967;50.234;19.224;2023-09-30T11:31:40;74812.50;;;-143.90;100.00
76050;BME280;64967;50.234;19.224;2023-09-30T11:34:07;74800.09;;;-143.90;100.00
76050;BME280;64967;50.234;19.224;2023-09-30T11:36:38;74795.97;;;-143.90;100.00
76050;BME280;64967;50.234;19.224;2023-09-30T11:39:06;74793.91;;;-143.90;100.00
76050;BME280;64967;50.234;19.224;2023-09-30T11:41:37;74789.78;;;-143.90;100.00
76050;BME280;64967;50.234;19.224;2023-09-30T11:44:09;74808.38;;;-143.90;100.00
76050;BME280;64967;50.234;19.224;2023-09-30T11:46:54;74814.56;;;-143.90;100.00
76050;BME280;64967;50.234;19.224;2023-09-30T11:49:33;74831.13;;;-143.90;100.00
76050;BME280;64967;50.234;19.224;2023-09-30T11:54:36;74884.88;;;-143.90;100.00
76050;BME280;64967;50.234;19.224;2023-09-30T11:57:09;74924.13;;;-143.90;100.00
76050;BME280;64967;50.234;19.224;2023-09-30T11:59:38;74928.28;;;-143.90;100.00
76050;BME280;64967;50.234;19.224;2023-09-30T12:02:15;74953.09;;;-143.90;100.00
76050;BME280;64967;50.234;19.224;2023-09-30T12:04:45;74967.56;;;-143.90;100.00
76050;BME280;64967;50.234;19.224;2023-09-30T12:07:14;74992.38;;;-143.90;100.00
76050;BME280;64967;50.234;19.224;2023-09-30T12:09:41;75023.38;;;-143.90;100.00
76050;BME280;64967;50.234;19.224;2023-09-30T12:12:09;75025.44;;;-143.90;100.00
76050;BME280;64967;50.234;19.224;2023-09-30T12:14:37;75033.72;;;-143.90;100.00
76050;BME280;64967;50.234;19.224;2023-09-30T12:17:04;75035.78;;;-143.90;100.00
76050;BME280;64967;50.234;19.224;2023-09-30T12:19:31;75054.38;;;-143.90;100.00
76050;BME280;64967;50.234;19.224;2023-09-30T12:21:58;75064.72;;;-143.90;100.00
76050;BME280;64967;50.234;19.224;2023-09-30T12:24:25;75083.31;;;-143.90;100.00
76050;BME280;64967;50.234;19.224;2023-09-30T12:26:53;75085.38;;;-143.90;100.00
76050;BME280;64967;50.234;19.224;2023-09-30T12:29:22;75089.53;;;-143.90;100.00
76050;BME280;64967;50.234;19.224;2023-09-30T12:31:51;75089.53;;;-143.90;100.00
76050;BME280;64967;50.234;19.224;2023-09-30T12:34:21;75104.00;;;-143.90;100.00
76050;BME280;64967;50.234;19.224;2023-09-30T12:36:53;75126.75;;;-143.90;100.00
76050;BME280;64967;50.234;19.224;2023-09-30T12:39:20;75143.28;;;-143.90;100.00
76050;BME280;64967;50.234;19.224;2023-09-30T12:41:52;75135.00;;;-143.90;100.00
76050;BME280;64967;50.234;19.224;2023-09-30T12:44:19;75143.28;;;-143.90;100.00
76050;BME280;64967;50.234;19.224;2023-09-30T12:46:46;75130.88;;;-143.90;100.00
76050;BME280;64967;50.234;19.224;2023-09-30T12:49:13;75126.75;;;-143.90;100.00
76050;BME280;64967;50.234;19.224;2023-09-30T12:51:40;75139.16;;;-143.90;100.00